createdAt,value
2018-01-31T01:53:09.419Z,3.01
2018-01-31T01:55:36.921Z,3.07
2018-01-31T01:58:04.453Z,3.10
2018-01-31T02:00:31.949Z,3.15
2018-01-31T02:02:59.521Z,3.17
2018-01-31T02:05:27.074Z,3.20
2018-01-31T02:07:54.611Z,3.26
2018-01-31T02:10:22.204Z,3.30
2018-01-31T02:12:49.709Z,3.30
2018-01-31T02:15:17.240Z,3.37
2018-01-31T02:17:44.851Z,3.37
2018-01-31T02:20:12.378Z,3.41
2018-01-31T02:22:39.886Z,3.42
2018-01-31T02:25:07.372Z,3.42
2018-01-31T02:27:34.882Z,3.38
2018-01-31T02:30:02.425Z,3.41
2018-01-31T02:32:29.935Z,3.44
2018-01-31T02:34:57.498Z,3.48
2018-01-31T02:37:25.062Z,3.47
2018-01-31T02:40:01.499Z,3.50
2018-01-31T02:42:29.055Z,3.50
2018-01-31T02:44:56.557Z,3.54
2018-01-31T02:47:24.106Z,3.57
2018-01-31T02:49:51.666Z,3.65
2018-01-31T02:52:19.179Z,3.70
2018-01-31T02:54:46.753Z,3.83
2018-01-31T02:57:14.287Z,3.92
2018-01-31T02:59:41.781Z,4.03
2018-01-31T03:02:09.296Z,4.13
2018-01-31T03:04:36.895Z,4.20
2018-01-31T03:07:04.422Z,4.25
2018-01-31T03:09:32.054Z,4.31
2018-01-31T03:11:59.615Z,4.36
2018-01-31T03:14:27.137Z,4.38
2018-01-31T03:16:54.642Z,4.42
2018-01-31T03:19:22.179Z,4.43
2018-01-31T03:21:49.673Z,4.42
2018-01-31T03:24:17.172Z,4.42
2018-01-31T03:26:44.671Z,4.45
2018-01-31T03:29:12.230Z,4.46
2018-01-31T03:31:39.745Z,4.50
2018-01-31T03:34:07.299Z,4.51
2018-01-31T03:36:34.862Z,4.51
2018-01-31T03:39:02.383Z,4.53
2018-01-31T03:41:29.920Z,4.52
2018-01-31T03:43:57.415Z,4.53
2018-01-31T03:46:24.936Z,4.56
2018-01-31T03:48:52.421Z,4.56
2018-01-31T03:51:19.926Z,4.57
2018-01-31T03:53:47.479Z,4.56
2018-01-31T03:56:15.034Z,4.56
2018-01-31T03:58:42.558Z,4.56
2018-01-31T04:01:10.160Z,4.58
2018-01-31T04:03:37.650Z,4.60
2018-01-31T04:06:05.135Z,4.58
2018-01-31T04:08:32.656Z,4.61
2018-01-31T04:11:00.142Z,4.61
2018-01-31T04:13:27.692Z,4.64
2018-01-31T04:15:55.195Z,4.65
2018-01-31T04:18:22.768Z,4.69
2018-01-31T04:20:50.292Z,4.68
2018-01-31T04:23:17.807Z,4.73
2018-01-31T04:25:45.321Z,4.77
2018-01-31T04:28:12.827Z,4.84
2018-01-31T04:30:40.351Z,4.89
2018-01-31T04:33:07.859Z,4.94
2018-01-31T04:35:35.426Z,5.02
2018-01-31T04:38:02.917Z,5.11
2018-01-31T04:40:30.422Z,5.20
2018-01-31T04:42:57.886Z,5.23
2018-01-31T04:45:25.393Z,5.27
2018-01-31T04:47:52.882Z,5.40
2018-01-31T04:50:20.479Z,5.54
2018-01-31T04:52:47.971Z,5.66
2018-01-31T04:55:15.480Z,5.75
2018-01-31T04:57:42.975Z,5.89
2018-01-31T05:00:10.492Z,5.99
2018-01-31T05:02:38.031Z,5.96
2018-01-31T05:05:05.539Z,6.01
2018-01-31T05:07:33.031Z,6.00
2018-01-31T05:10:00.554Z,6.05
2018-01-31T05:12:28.112Z,6.01
2018-01-31T05:14:55.589Z,6.01
2018-01-31T05:17:23.236Z,5.97
2018-01-31T05:19:50.732Z,5.99
2018-01-31T05:22:18.234Z,6.00
2018-01-31T05:24:47.146Z,6.00
2018-01-31T05:27:14.655Z,6.00
2018-01-31T05:29:42.143Z,6.01
2018-01-31T05:32:09.636Z,6.00
2018-01-31T05:34:37.161Z,6.05
2018-01-31T05:37:04.691Z,6.04
2018-01-31T05:39:32.216Z,6.08
2018-01-31T05:42:00.596Z,6.09
2018-01-31T05:44:28.160Z,6.12
2018-01-31T05:46:55.678Z,6.14
2018-01-31T05:49:23.170Z,6.52
2018-01-31T05:51:50.650Z,6.69
2018-01-31T05:54:18.171Z,6.84
2018-01-31T05:56:45.693Z,7.05
2018-01-31T05:59:13.220Z,7.13
2018-01-31T06:01:40.717Z,7.38
2018-01-31T06:04:08.270Z,7.44
2018-01-31T06:06:35.798Z,7.68
2018-01-31T06:09:03.330Z,7.54
2018-01-31T06:11:30.835Z,7.56
2018-01-31T06:13:58.340Z,7.55
2018-01-31T06:19:23.741Z,7.65
2018-01-31T06:21:51.248Z,7.62
2018-01-31T06:24:18.763Z,7.65
2018-01-31T06:26:46.287Z,7.67
2018-01-31T06:29:13.790Z,7.67
2018-01-31T06:31:41.321Z,7.68
2018-01-31T06:34:08.830Z,7.67
2018-01-31T06:36:36.356Z,7.72
2018-01-31T06:39:03.872Z,7.69
2018-01-31T06:41:31.354Z,7.54
2018-01-31T06:43:58.854Z,7.50
2018-01-31T06:46:26.366Z,7.48
2018-01-31T06:48:53.860Z,7.38
2018-01-31T06:51:21.379Z,7.38
2018-01-31T06:53:48.872Z,7.36
2018-01-31T06:56:16.361Z,7.34
2018-01-31T06:58:43.869Z,7.38
2018-01-31T07:01:11.348Z,7.39
2018-01-31T07:03:38.903Z,7.41
2018-01-31T07:06:06.414Z,7.49
2018-01-31T07:08:33.958Z,7.55
2018-01-31T07:11:01.471Z,7.56
2018-01-31T07:13:29.024Z,7.65
2018-01-31T07:15:56.600Z,7.64
2018-01-31T07:18:24.119Z,7.69
2018-01-31T07:20:51.648Z,7.68
2018-01-31T07:23:19.138Z,7.68
2018-01-31T07:25:46.653Z,7.76
2018-01-31T07:28:14.165Z,7.77
2018-01-31T07:30:41.712Z,7.84
2018-01-31T07:33:09.213Z,7.77
2018-01-31T07:35:36.709Z,7.74
2018-01-31T07:38:04.197Z,7.77
2018-01-31T07:40:31.710Z,7.77
2018-01-31T07:42:59.205Z,7.68
2018-01-31T07:45:26.726Z,7.68
2018-01-31T07:47:54.230Z,7.69
2018-01-31T07:50:21.726Z,7.70
2018-01-31T07:52:49.242Z,7.66
2018-01-31T07:55:16.750Z,7.71
2018-01-31T07:57:44.323Z,7.68
2018-01-31T08:00:11.813Z,7.74
2018-01-31T08:02:39.292Z,7.84
2018-01-31T08:05:06.797Z,7.90
2018-01-31T08:07:34.303Z,7.89
2018-01-31T08:10:01.856Z,7.96
2018-01-31T08:12:29.408Z,8.03
2018-01-31T08:14:56.927Z,8.01
2018-01-31T08:17:24.447Z,8.08
2018-01-31T08:19:51.963Z,8.07
2018-01-31T08:22:19.510Z,8.16
2018-01-31T08:24:47.072Z,8.19
2018-01-31T08:27:14.558Z,8.29
2018-01-31T08:29:42.055Z,8.28
2018-01-31T08:32:09.550Z,8.33
2018-01-31T08:34:37.057Z,8.40
2018-01-31T08:37:04.621Z,8.47
2018-01-31T08:39:32.142Z,8.51
2018-01-31T08:41:59.636Z,8.57
2018-01-31T08:44:27.127Z,8.61
2018-01-31T08:46:54.633Z,8.64
2018-01-31T08:49:22.154Z,8.71
2018-01-31T08:51:49.613Z,8.78
2018-01-31T08:54:17.092Z,8.82
2018-01-31T08:56:45.491Z,8.89
2018-01-31T08:59:12.965Z,8.93
2018-01-31T09:01:41.377Z,8.99
2018-01-31T09:04:08.856Z,9.07
2018-01-31T09:06:36.360Z,9.14
2018-01-31T09:09:03.879Z,9.17
2018-01-31T09:11:31.382Z,9.20
2018-01-31T09:13:58.900Z,9.22
2018-01-31T09:16:26.414Z,9.26
2018-01-31T09:18:53.923Z,9.29
2018-01-31T09:21:21.413Z,9.30
2018-01-31T09:23:48.894Z,9.31
2018-01-31T09:26:16.382Z,9.38
2018-01-31T09:28:43.912Z,9.40
2018-01-31T09:31:11.413Z,9.41
2018-01-31T09:33:38.931Z,9.45
2018-01-31T09:36:06.468Z,9.43
2018-01-31T09:38:33.973Z,9.43
2018-01-31T09:41:01.503Z,9.46
2018-01-31T09:43:29.012Z,9.48
2018-01-31T09:45:56.523Z,9.54
2018-01-31T09:48:24.001Z,9.58
2018-01-31T09:50:51.524Z,9.62
2018-01-31T09:53:19.022Z,9.69
2018-01-31T09:55:46.566Z,9.73
2018-01-31T09:58:14.096Z,9.73
2018-01-31T10:00:41.614Z,9.81
2018-01-31T10:03:09.105Z,9.89
2018-01-31T10:05:36.608Z,9.97
2018-01-31T10:08:04.101Z,9.98
2018-01-31T10:10:31.624Z,10.02
2018-01-31T10:12:59.138Z,10.05
2018-01-31T10:15:26.701Z,10.04
2018-01-31T10:17:54.218Z,10.09
2018-01-31T10:20:21.773Z,10.14
2018-01-31T10:22:49.523Z,10.12
2018-01-31T10:25:17.079Z,10.13
2018-01-31T10:27:44.607Z,10.13
2018-01-31T10:30:12.308Z,10.18
2018-01-31T10:32:39.892Z,10.18
2018-01-31T10:35:07.575Z,10.18
2018-01-31T10:37:35.095Z,10.20
2018-01-31T10:40:02.584Z,10.22
2018-01-31T10:42:30.108Z,10.29
2018-01-31T10:44:57.644Z,10.31
2018-01-31T10:47:25.170Z,10.33
2018-01-31T10:49:52.655Z,10.31
2018-01-31T10:52:20.172Z,10.36
2018-01-31T10:57:29.031Z,10.36
2018-01-31T10:59:42.843Z,10.40
2018-01-31T11:02:10.390Z,10.47
2018-01-31T11:04:37.925Z,10.46
2018-01-31T11:07:05.433Z,10.53
2018-01-31T11:09:32.970Z,10.50
2018-01-31T11:12:00.443Z,10.52
2018-01-31T11:14:27.988Z,10.60
2018-01-31T11:16:55.504Z,10.63
2018-01-31T11:19:23.018Z,10.67
2018-01-31T11:21:50.555Z,10.66
2018-01-31T11:24:18.078Z,10.70
2018-01-31T11:26:45.578Z,10.66
2018-01-31T11:29:13.073Z,10.71
2018-01-31T11:31:40.566Z,10.77
2018-01-31T11:34:08.059Z,10.77
2018-01-31T11:36:35.569Z,10.76
2018-01-31T11:39:03.090Z,10.77
2018-01-31T11:41:30.601Z,10.78
2018-01-31T11:43:58.095Z,10.87
2018-01-31T11:46:25.607Z,10.91
2018-01-31T11:48:53.112Z,10.83
2018-01-31T11:51:20.641Z,10.85
2018-01-31T11:53:48.196Z,10.93
2018-01-31T11:56:15.706Z,10.93
2018-01-31T11:58:43.311Z,10.86
2018-01-31T12:01:10.880Z,10.81
2018-01-31T12:03:38.428Z,10.83
2018-01-31T12:06:05.959Z,10.89
2018-01-31T12:08:33.521Z,10.89
2018-01-31T12:11:01.011Z,10.85
2018-01-31T12:13:40.430Z,10.89
2018-01-31T12:16:19.707Z,10.92
2018-01-31T12:18:59.048Z,10.87
2018-01-31T12:21:38.282Z,10.91
2018-01-31T12:24:17.588Z,10.94
2018-01-31T12:26:53.945Z,10.90
2018-01-31T12:29:34.309Z,10.92
2018-01-31T12:35:16.206Z,11.03
2018-01-31T12:37:55.592Z,11.02
2018-01-31T12:40:22.577Z,11.09
2018-01-31T12:42:49.531Z,11.19
2018-01-31T12:45:16.533Z,11.13
2018-01-31T12:47:55.720Z,11.16
2018-01-31T12:50:35.138Z,11.13
2018-01-31T12:53:14.465Z,11.17
2018-01-31T12:55:53.824Z,11.09
2018-01-31T12:58:33.186Z,11.13
2018-01-31T13:01:12.462Z,11.13
2018-01-31T13:03:51.769Z,11.11
2018-01-31T13:06:30.983Z,11.09
2018-01-31T13:09:10.327Z,11.06
2018-01-31T13:11:50.014Z,11.08
2018-01-31T13:14:29.495Z,10.98
2018-01-31T13:17:08.787Z,10.98
2018-01-31T13:19:48.159Z,10.99
2018-01-31T13:22:27.394Z,10.99
2018-01-31T13:28:20.815Z,10.97
2018-01-31T13:34:09.580Z,10.92
2018-01-31T13:40:08.996Z,10.83
2018-01-31T13:45:51.841Z,10.87
2018-01-31T13:48:31.886Z,10.82
2018-01-31T13:54:18.796Z,10.76
2018-01-31T13:56:58.119Z,10.72
2018-01-31T13:59:37.452Z,10.72
2018-01-31T14:02:16.790Z,10.70
2018-01-31T14:04:56.081Z,10.75
2018-01-31T14:07:35.252Z,10.68
2018-01-31T14:10:14.604Z,10.65
2018-01-31T14:12:53.953Z,10.64
2018-01-31T14:15:33.252Z,10.62
2018-01-31T14:18:12.536Z,10.65
2018-01-31T14:20:51.688Z,10.56
2018-01-31T14:23:30.915Z,10.50
2018-01-31T14:26:11.940Z,10.49
2018-01-31T14:28:51.113Z,10.44
2018-01-31T14:31:30.470Z,10.37
2018-01-31T14:34:09.664Z,10.36
2018-01-31T14:36:36.671Z,10.39
2018-01-31T14:39:03.672Z,10.30
2018-01-31T14:41:30.651Z,10.28
2018-01-31T14:43:57.643Z,10.26
2018-01-31T14:46:24.664Z,10.26
2018-01-31T14:48:51.614Z,10.28
2018-01-31T14:51:18.586Z,10.19
2018-01-31T14:53:45.589Z,10.17
2018-01-31T14:56:12.636Z,10.17
2018-01-31T14:58:39.641Z,10.15
2018-01-31T15:01:06.616Z,10.16
2018-01-31T15:03:33.570Z,10.23
2018-01-31T15:06:00.553Z,10.18
2018-01-31T15:08:27.542Z,10.14
2018-01-31T15:10:54.530Z,10.21
2018-01-31T15:13:21.489Z,10.10
2018-01-31T15:15:48.488Z,10.15
2018-01-31T15:18:15.467Z,10.14
2018-01-31T15:20:42.437Z,10.16
2018-01-31T15:23:09.428Z,10.10
2018-01-31T15:25:36.412Z,10.12
2018-01-31T15:28:03.380Z,10.08
2018-01-31T15:30:30.400Z,10.06
2018-01-31T15:32:57.388Z,10.01
2018-01-31T15:35:24.380Z,9.92
2018-01-31T15:37:51.342Z,9.83
2018-01-31T15:40:18.301Z,9.77
2018-01-31T15:42:45.302Z,9.67
2018-01-31T15:45:12.275Z,9.58
2018-01-31T15:47:39.249Z,9.41
2018-01-31T15:50:06.224Z,9.28
2018-01-31T15:52:33.187Z,9.17
2018-01-31T15:55:00.203Z,9.11
2018-01-31T15:57:27.155Z,8.26
2018-01-31T15:59:54.134Z,8.14
2018-01-31T16:02:21.085Z,8.01
2018-01-31T16:04:48.036Z,7.77
2018-01-31T16:07:15.020Z,7.79
2018-01-31T16:09:42.050Z,7.58
2018-01-31T16:12:09.033Z,7.53
2018-01-31T16:14:36.007Z,7.47
2018-01-31T16:17:03.479Z,7.39
2018-01-31T16:19:42.624Z,7.39
2018-01-31T16:22:10.141Z,7.33
2018-01-31T16:24:37.651Z,7.41
2018-01-31T16:27:10.959Z,7.40
2018-01-31T16:29:50.196Z,7.39
2018-01-31T16:32:29.324Z,7.43
2018-01-31T16:34:57.008Z,7.49
2018-01-31T16:37:24.495Z,7.40
2018-01-31T16:39:52.061Z,7.35
2018-01-31T16:42:19.552Z,7.41
2018-01-31T16:44:47.085Z,7.44
2018-01-31T16:47:18.594Z,7.24
2018-01-31T16:49:46.137Z,7.33
2018-01-31T16:52:13.657Z,7.24
2018-01-31T16:54:41.147Z,7.32
2018-01-31T16:57:08.642Z,7.37
2018-01-31T16:59:36.257Z,7.33
2018-01-31T17:02:03.849Z,7.37
2018-01-31T17:04:31.385Z,7.38
2018-01-31T17:06:59.899Z,7.35
2018-01-31T17:09:27.420Z,7.42
2018-01-31T17:11:54.913Z,7.44
2018-01-31T17:14:22.421Z,7.36
2018-01-31T17:16:49.960Z,7.44
2018-01-31T17:19:17.473Z,7.41
2018-01-31T17:21:45.057Z,7.37
2018-01-31T17:24:12.549Z,7.43
2018-01-31T17:26:40.070Z,7.45
2018-01-31T17:29:07.592Z,7.47
2018-01-31T17:31:35.069Z,7.52
2018-01-31T17:34:02.625Z,7.50
2018-01-31T17:36:30.192Z,7.49
2018-01-31T17:38:57.696Z,7.53
2018-01-31T17:41:25.237Z,7.56
2018-01-31T17:43:53.494Z,7.50
2018-01-31T17:46:21.010Z,7.49
2018-01-31T17:48:48.513Z,7.52
2018-01-31T17:51:16.051Z,7.51
2018-01-31T17:53:43.572Z,7.51
2018-01-31T17:56:11.194Z,7.53
2018-01-31T17:58:38.737Z,7.56
2018-01-31T18:01:06.339Z,7.54
2018-01-31T18:03:33.825Z,7.48
2018-01-31T18:06:01.311Z,7.50
2018-01-31T18:08:28.830Z,7.56
2018-01-31T18:10:56.378Z,7.56
2018-01-31T18:13:23.878Z,7.47
2018-01-31T18:15:51.509Z,7.46
2018-01-31T18:18:19.045Z,7.46
2018-01-31T18:20:46.567Z,7.40
2018-01-31T18:23:14.077Z,7.41
2018-01-31T18:25:41.578Z,7.39
2018-01-31T18:28:09.084Z,7.30
2018-01-31T18:30:36.601Z,7.29
2018-01-31T18:33:04.067Z,7.31
2018-01-31T18:35:31.589Z,7.26
2018-01-31T18:37:59.088Z,7.25
2018-01-31T18:40:26.684Z,7.22
2018-01-31T18:42:54.201Z,7.16
2018-01-31T18:45:21.749Z,7.10
2018-01-31T18:47:49.233Z,7.05
2018-01-31T18:50:17.672Z,7.07
2018-01-31T18:52:45.196Z,7.00
2018-01-31T18:55:12.688Z,7.01
2018-01-31T18:57:40.173Z,7.00
2018-01-31T19:00:07.683Z,6.97
2018-01-31T19:02:35.230Z,6.92
2018-01-31T19:05:02.725Z,6.85
2018-01-31T19:07:30.228Z,6.89
2018-01-31T19:09:57.737Z,6.78
2018-01-31T19:12:25.289Z,6.81
2018-01-31T19:14:52.809Z,6.77
2018-01-31T19:17:20.307Z,6.76
2018-01-31T19:19:47.784Z,6.75
2018-01-31T19:22:15.347Z,6.67
2018-01-31T19:24:42.864Z,6.59
2018-01-31T19:27:10.353Z,6.64
2018-01-31T19:29:37.870Z,6.54
2018-01-31T19:32:05.442Z,6.33
2018-01-31T19:34:32.972Z,6.09
2018-01-31T19:37:00.518Z,5.80
2018-01-31T19:39:28.010Z,5.67
2018-01-31T19:41:55.540Z,5.40
2018-01-31T19:44:23.016Z,5.30
2018-01-31T19:46:50.556Z,5.17
2018-01-31T19:49:18.034Z,5.09
2018-01-31T19:51:45.581Z,5.11
2018-01-31T19:54:13.097Z,5.05
2018-01-31T19:56:40.605Z,4.92
2018-01-31T19:59:08.146Z,4.89
2018-01-31T20:01:35.622Z,4.88
2018-01-31T20:04:03.128Z,4.86
2018-01-31T20:06:30.692Z,4.88
2018-01-31T20:08:58.197Z,4.78
2018-01-31T20:11:25.716Z,4.79
2018-01-31T20:13:53.208Z,4.63
2018-01-31T20:16:20.710Z,4.67
2018-01-31T20:18:48.234Z,4.65
2018-01-31T20:21:15.848Z,4.59
2018-01-31T20:23:43.383Z,4.54
2018-01-31T20:26:10.884Z,4.51
2018-01-31T20:28:38.465Z,4.55
2018-01-31T20:31:05.962Z,4.44
2018-01-31T20:33:33.476Z,4.42
2018-01-31T20:36:01.043Z,4.50
2018-01-31T20:38:28.600Z,4.35
2018-01-31T20:40:56.414Z,4.48
2018-01-31T20:43:23.936Z,4.50
2018-01-31T20:45:51.429Z,4.40
2018-01-31T20:48:18.970Z,4.46
2018-01-31T20:50:46.567Z,4.45
2018-01-31T20:53:14.069Z,4.43
2018-01-31T20:55:41.580Z,4.43
2018-01-31T20:58:09.213Z,4.38
2018-01-31T21:00:36.842Z,4.42
2018-01-31T21:03:04.348Z,4.44
2018-01-31T21:05:32.015Z,4.42
2018-01-31T21:07:59.526Z,4.46
2018-01-31T21:10:27.072Z,4.47
2018-01-31T21:12:54.622Z,4.50
2018-01-31T21:15:22.110Z,4.49
2018-01-31T21:17:49.671Z,4.54
2018-01-31T21:20:17.199Z,4.50
2018-01-31T21:22:44.692Z,4.46
2018-01-31T21:25:12.261Z,4.50
2018-01-31T21:27:39.765Z,4.49
2018-01-31T21:30:07.306Z,4.50
2018-01-31T21:32:34.908Z,4.52
2018-01-31T21:35:02.423Z,4.55
2018-01-31T21:37:29.913Z,4.50
2018-01-31T21:39:57.443Z,4.55
2018-01-31T21:42:24.959Z,4.47
2018-01-31T21:44:52.445Z,4.53
2018-01-31T21:47:19.971Z,4.51
2018-01-31T21:49:47.530Z,4.52
2018-01-31T21:52:21.539Z,4.57
2018-01-31T21:54:49.052Z,4.54
2018-01-31T21:57:16.609Z,4.55
2018-01-31T21:59:44.103Z,4.53
2018-01-31T22:02:11.585Z,4.47
2018-01-31T22:04:39.119Z,4.55
2018-01-31T22:07:07.620Z,4.52
2018-01-31T22:09:35.134Z,4.51
2018-01-31T22:12:02.628Z,4.51
2018-01-31T22:14:30.234Z,4.52
2018-01-31T22:16:57.812Z,4.45
2018-01-31T22:19:25.293Z,4.52
2018-01-31T22:21:52.792Z,4.56
2018-01-31T22:24:20.344Z,4.47
2018-01-31T22:26:47.864Z,4.54
2018-01-31T22:29:15.357Z,4.48
2018-01-31T22:31:42.865Z,4.52
2018-01-31T22:34:10.506Z,4.53
2018-01-31T22:36:38.727Z,4.52
2018-01-31T22:39:06.341Z,4.52
2018-01-31T22:41:33.851Z,4.53
2018-01-31T22:44:01.348Z,4.49
2018-01-31T22:46:28.896Z,4.47
2018-01-31T22:48:56.432Z,4.46
2018-01-31T22:51:23.924Z,4.45
2018-01-31T22:53:51.446Z,4.46
2018-01-31T22:56:18.988Z,4.42
2018-01-31T22:58:46.540Z,4.43
